Terminal Aerodrome Forecast
Issued by NWS

Home | Current Version | Previous Version | Text Only | Print | Product List | Glossary On
Versions: 1 2 3 4 5 6 7 8 9 10 11 12 13
000
FTUS43 KIWX 011100
TAFSBN
TAF
KSBN 011120Z 0112/0212 10002KT P6SM BKN018
     FM011300 11005KT P6SM BKN025
     FM011600 14007KT P6SM FEW030 SCT250=

USA.gov is the U.S. government's official web portal to all federal, state and local government web resources and services.